Time;durP1;ratioP1;P1;durP2;ratioP2;P2;SDS_P1;SDS_P2;PMS_P1;PMS_P2;Temp;Humidity;BMP_temperature;BMP_pressure;BME280_temperature;BME280_humidity;BME280_pressure;Samples;Min_cycle;Max_cycle;Signal;HPM_P1;HPM_P2
2022/08/11 00:01:48;;;;;;;7.53;4.87;;;17.10;99.90;;;;;;5051781;28;20228;-88
2022/08/11 00:04:16;;;;;;;9.03;5.40;;;17.10;99.90;;;;;;5054836;28;20247;-87
2022/08/11 00:06:44;;;;;;;11.90;5.43;;;17.10;99.90;;;;;;5055272;28;20205;-87
2022/08/11 00:09:14;;;;;;;8.57;5.47;;;17.10;99.90;;;;;;5041844;28;20216;-86
2022/08/11 00:11:49;;;;;;;7.87;5.17;;;17.20;99.90;;;;;;5076552;28;20281;-87
2022/08/11 00:14:19;;;;;;;9.77;6.50;;;17.20;99.90;;;;;;5039065;28;20216;-87
2022/08/11 00:16:54;;;;;;;8.70;5.90;;;17.20;99.90;;;;;;5043354;28;20236;-87
2022/08/11 00:19:23;;;;;;;7.80;5.20;;;17.20;99.90;;;;;;5057420;28;20212;-87
2022/08/11 00:21:49;;;;;;;8.43;5.57;;;17.20;99.90;;;;;;5056459;28;20244;-86
2022/08/11 00:24:16;;;;;;;9.90;5.73;;;17.20;99.90;;;;;;5039677;28;20218;-87
2022/08/11 00:26:48;;;;;;;10.67;5.90;;;17.20;99.90;;;;;;5022682;28;20217;-88
2022/08/11 00:29:14;;;;;;;8.27;5.17;;;17.20;99.90;;;;;;5039094;28;20212;-87
2022/08/11 00:31:50;;;;;;;9.17;5.57;;;17.10;99.90;;;;;;5024098;28;20701;-87
2022/08/11 00:34:23;;;;;;;10.47;5.27;;;17.00;99.90;;;;;;5076726;28;20201;-87
2022/08/11 00:36:59;;;;;;;10.00;6.60;;;17.10;99.90;;;;;;5058738;28;20157;-86
2022/08/11 00:39:26;;;;;;;8.10;5.80;;;17.10;99.90;;;;;;5059227;28;20168;-87
2022/08/11 00:42:16;;;;;;;11.20;6.30;;;17.10;99.90;;;;;;5041743;28;20229;-86
2022/08/11 00:44:47;;;;;;;12.53;6.60;;;17.10;99.90;;;;;;5058429;28;20299;-87
2022/08/11 00:47:40;;;;;;;11.33;6.57;;;17.00;99.90;;;;;;5058557;28;20213;-87
2022/08/11 00:50:28;;;;;;;10.53;5.60;;;17.10;99.90;;;;;;5058609;28;20212;-87
2022/08/11 00:53:14;;;;;;;10.43;6.27;;;16.90;99.90;;;;;;5054983;28;20283;-88
2022/08/11 00:56:04;;;;;;;11.37;5.53;;;16.80;99.90;;;;;;5038378;28;20576;-87
2022/08/11 00:59:15;;;;;;;9.47;5.43;;;16.80;99.90;;;;;;5038141;28;20214;-87
2022/08/11 01:02:07;;;;;;;8.37;5.23;;;16.80;99.90;;;;;;5049941;28;20231;-87
2022/08/11 01:04:45;;;;;;;8.97;5.73;;;16.80;99.90;;;;;;5045159;28;20217;-87
2022/08/11 01:07:35;;;;;;;7.47;4.93;;;16.90;99.90;;;;;;5038019;28;20221;-87
2022/08/11 01:10:38;;;;;;;8.60;5.07;;;17.00;99.90;;;;;;5037975;28;20163;-86
2022/08/11 01:13:41;;;;;;;8.63;4.63;;;17.00;99.90;;;;;;5053769;28;20189;-87
2022/08/11 01:16:11;;;;;;;10.53;5.37;;;16.90;99.90;;;;;;5046012;28;20190;-87
2022/08/11 01:19:10;;;;;;;10.17;5.00;;;16.80;99.90;;;;;;5046557;28;20625;-87
2022/08/11 01:22:13;;;;;;;5.73;4.57;;;16.80;99.90;;;;;;5058255;28;20252;-87
2022/08/11 01:24:56;;;;;;;8.80;4.27;;;16.90;99.90;;;;;;5048493;28;20221;-87
2022/08/11 01:27:45;;;;;;;8.47;4.83;;;16.90;99.90;;;;;;5057891;28;20205;-87
2022/08/11 01:30:42;;;;;;;5.17;3.93;;;16.90;99.90;;;;;;5057330;28;20286;-87
2022/08/11 01:33:45;;;;;;;8.23;5.07;;;16.90;99.90;;;;;;5042802;28;20222;-87
2022/08/11 01:37:09;;;;;;;5.50;3.90;;;16.90;99.90;;;;;;5055108;28;20236;-87
2022/08/11 01:39:53;;;;;;;8.77;4.13;;;16.90;99.90;;;;;;4958374;28;20204;-87
2022/08/11 01:45:47;;;;;;;8.17;3.93;;;17.00;99.90;;;;;;5062481;28;20205;-87
2022/08/11 01:48:15;;;;;;;3.93;3.27;;;16.90;99.90;;;;;;5057645;28;20239;-87
2022/08/11 01:51:07;;;;;;;5.57;4.17;;;16.80;99.90;;;;;;5074964;28;20247;-87
2022/08/11 01:53:35;;;;;;;5.60;3.77;;;16.60;99.90;;;;;;5057113;28;20213;-87
2022/08/11 01:56:38;;;;;;;4.57;3.03;;;16.50;99.90;;;;;;5051667;28;20245;-87
2022/08/11 01:59:33;;;;;;;4.23;3.40;;;16.50;99.90;;;;;;5054788;28;20351;-87
2022/08/11 02:02:20;;;;;;;5.10;3.60;;;16.60;99.90;;;;;;5036635;28;20218;-86
2022/08/11 02:04:58;;;;;;;7.57;4.10;;;16.70;99.90;;;;;;5049230;28;20222;-86
2022/08/11 02:07:42;;;;;;;4.97;3.20;;;16.70;99.90;;;;;;5053541;28;20224;-87
2022/08/11 02:13:14;;;;;;;6.17;3.60;;;16.60;99.90;;;;;;5057684;28;20217;-87
2022/08/11 02:15:48;;;;;;;4.77;3.47;;;16.50;99.90;;;;;;5057123;28;20176;-87
2022/08/11 02:25:04;;;;;;;4.67;2.90;;;16.30;99.90;;;;;;5074416;28;20251;-87
2022/08/11 02:27:43;;;;;;;4.17;2.93;;;16.10;99.90;;;;;;5074819;28;20709;-87
2022/08/11 02:30:15;;;;;;;7.73;4.03;;;16.10;99.90;;;;;;5052111;28;20259;-87
2022/08/11 02:36:19;;;;;;;5.27;4.30;;;16.30;99.90;;;;;;5054234;28;20214;-86
2022/08/11 02:38:53;;;;;;;3.67;2.90;;;16.20;99.90;;;;;;5036385;28;20588;-87
2022/08/11 02:44:42;;;;;;;6.53;3.70;;;16.30;99.90;;;;;;5070405;28;20213;-87
2022/08/11 02:47:30;;;;;;;4.10;3.30;;;16.30;99.90;;;;;;5056120;28;20229;-87
2022/08/11 02:50:17;;;;;;;7.03;3.70;;;16.40;99.90;;;;;;5055831;28;20213;-87
2022/08/11 02:53:02;;;;;;;6.17;3.17;;;16.40;99.90;;;;;;5053380;28;20217;-87
2022/08/11 02:55:39;;;;;;;4.73;3.27;;;16.30;99.90;;;;;;5055907;28;20241;-87
2022/08/11 02:58:40;;;;;;;4.73;2.90;;;16.10;99.90;;;;;;5040794;28;20181;-87
2022/08/11 03:01:37;;;;;;;6.67;2.87;;;15.90;99.90;;;;;;5018646;28;20605;-87
2022/08/11 03:04:09;;;;;;;4.90;3.20;;;15.80;99.90;;;;;;5051549;28;20225;-86
2022/08/11 03:06:49;;;;;;;4.70;3.37;;;15.80;99.90;;;;;;5036736;28;20162;-87
2022/08/11 03:09:26;;;;;;;4.30;2.80;;;15.70;99.90;;;;;;5052680;28;20251;-87
2022/08/11 03:18:11;;;;;;;3.43;2.67;;;15.50;99.90;;;;;;5053402;28;20218;-87
2022/08/11 03:21:10;;;;;;;6.53;3.63;;;15.40;99.90;;;;;;5066249;28;20801;-87
2022/08/11 03:23:50;;;;;;;4.03;3.20;;;15.50;99.90;;;;;;5041026;28;20206;-87
2022/08/11 03:26:27;;;;;;;4.87;3.83;;;15.50;99.90;;;;;;5052030;28;20208;-87
2022/08/11 03:29:19;;;;;;;3.90;3.50;;;15.60;99.90;;;;;;5055423;28;20689;-87
2022/08/11 03:32:06;;;;;;;5.57;3.90;;;15.70;99.90;;;;;;5052543;28;20758;-87
2022/08/11 03:34:36;;;;;;;8.67;3.90;;;15.70;99.90;;;;;;5055347;28;20552;-87
2022/08/11 03:37:05;;;;;;;5.10;3.23;;;15.70;99.90;;;;;;5055087;28;20158;-87
2022/08/11 03:40:09;;;;;;;8.97;4.20;;;15.70;99.90;;;;;;5056022;28;20581;-87
2022/08/11 03:42:56;;;;;;;11.93;3.60;;;15.60;99.90;;;;;;5023338;28;20218;-87
2022/08/11 03:45:34;;;;;;;5.50;3.50;;;15.70;99.90;;;;;;5055110;28;20201;-87
2022/08/11 03:48:19;;;;;;;5.83;3.30;;;15.70;99.90;;;;;;5051890;28;20209;-86
2022/08/11 03:51:21;;;;;;;6.10;4.33;;;15.70;99.90;;;;;;5035269;28;20219;-87
2022/08/11 03:54:27;;;;;;;6.13;3.10;;;15.70;99.90;;;;;;5043477;28;20583;-87
2022/08/11 03:57:26;;;;;;;4.60;3.37;;;15.50;99.90;;;;;;5011666;28;20572;-87
2022/08/11 04:00:19;;;;;;;6.73;3.70;;;15.40;99.90;;;;;;5052591;28;20213;-87
2022/08/11 04:02:51;;;;;;;8.30;3.73;;;15.50;99.90;;;;;;5035141;28;20566;-87
2022/08/11 04:05:43;;;;;;;6.17;3.97;;;15.60;99.90;;;;;;5035706;28;20217;-88
2022/08/11 04:08:36;;;;;;;8.57;4.67;;;15.70;99.90;;;;;;5035213;28;20300;-87
2022/08/11 04:11:32;;;;;;;4.80;4.10;;;15.70;99.90;;;;;;5046584;28;20248;-91
2022/08/11 04:17:39;;;;;;;5.93;3.63;;;15.90;99.90;;;;;;5063873;28;20204;-88
2022/08/11 04:20:37;;;;;;;10.27;4.97;;;16.00;99.90;;;;;;5051614;28;20295;-89
2022/08/11 04:23:11;;;;;;;9.60;5.33;;;16.00;99.90;;;;;;5047472;28;20578;-87
2022/08/11 04:26:14;;;;;;;8.53;6.47;;;16.10;99.90;;;;;;5036063;28;20216;-87
2022/08/11 04:29:24;;;;;;;7.60;4.33;;;16.20;99.90;;;;;;5055170;28;20216;-87
2022/08/11 04:32:08;;;;;;;6.53;4.07;;;16.20;99.90;;;;;;5044489;28;20221;-87
2022/08/11 04:35:04;;;;;;;7.70;3.87;;;16.10;99.90;;;;;;5055234;28;20686;-87
2022/08/11 04:37:36;;;;;;;49.87;4.10;;;16.00;99.90;;;;;;5055013;28;20697;-88
2022/08/11 04:40:02;;;;;;;12.50;4.27;;;15.80;99.90;;;;;;5054935;28;20271;-87
2022/08/11 04:45:33;;;;;;;18.70;5.27;;;15.50;99.90;;;;;;5052942;28;20198;-87
2022/08/11 05:07:37;;;;;;;11.60;6.43;;;16.50;99.90;;;;;;5022503;28;20298;-87
2022/08/11 05:10:26;;;;;;;10.07;5.97;;;16.60;99.90;;;;;;5058300;28;20173;-86
2022/08/11 05:12:55;;;;;;;15.23;7.37;;;16.70;99.90;;;;;;5054893;28;20166;-87
2022/08/11 05:35:44;;;;;;;13.43;7.70;;;17.70;99.90;;;;;;5061506;28;20213;-87
2022/08/11 05:58:00;;;;;;;11.70;6.97;;;29.30;99.90;;;;;;5066789;28;20211;-88
2022/08/11 06:00:27;;;;;;;12.57;6.03;;;30.30;99.90;;;;;;5057519;28;20688;-88
2022/08/11 06:02:57;;;;;;;9.73;5.80;;;30.70;99.90;;;;;;5057190;28;20233;-87
2022/08/11 06:05:31;;;;;;;6.72;4.60;;;31.30;99.90;;;;;;5056770;28;20209;-88
2022/08/11 06:07:57;;;;;;;9.25;5.05;;;31.90;99.90;;;;;;5053731;28;20209;-87
2022/08/11 06:10:32;;;;;;;4.35;3.85;;;32.50;99.90;;;;;;5046401;28;20262;-86
2022/08/11 06:12:59;;;;;;;6.10;3.55;;;32.60;99.90;;;;;;5040417;28;20618;-87
2022/08/11 06:15:27;;;;;;;5.38;3.88;;;32.40;99.90;;;;;;5056964;28;20181;-87
2022/08/11 06:17:55;;;;;;;8.10;3.63;;;32.30;99.90;;;;;;5056627;28;20209;-87
2022/08/11 06:20:22;;;;;;;4.60;3.50;;;31.30;99.90;;;;;;5056249;28;20225;-87
2022/08/11 06:22:56;;;;;;;6.25;3.55;;;31.10;99.90;;;;;;5040197;28;20213;-87
2022/08/11 06:25:30;;;;;;;5.63;3.67;;;31.90;99.90;;;;;;5056479;28;20711;-87
2022/08/11 06:27:56;;;;;;;3.60;3.08;;;31.50;99.90;;;;;;5073939;28;20158;-87
2022/08/11 06:30:43;;;;;;;3.92;3.35;;;31.60;99.90;;;;;;5038218;28;20178;-86
2022/08/11 06:33:16;;;;;;;4.05;3.42;;;31.80;99.90;;;;;;5052490;28;20662;-87
2022/08/11 06:36:11;;;;;;;5.68;3.75;;;32.20;99.90;;;;;;5044070;28;20217;-87
2022/08/11 06:38:43;;;;;;;4.63;3.72;;;32.00;99.90;;;;;;5022958;28;20217;-88
2022/08/11 06:41:31;;;;;;;6.82;3.40;;;31.20;99.90;;;;;;5036064;28;20244;-87
2022/08/11 06:44:12;;;;;;;7.38;3.70;;;31.00;99.90;;;;;;5052744;28;20214;-85
2022/08/11 06:46:45;;;;;;;5.03;3.63;;;31.20;99.90;;;;;;5068701;28;20224;-87
2022/08/11 06:52:12;;;;;;;6.57;3.53;;;33.10;99.90;;;;;;5073862;28;20215;-87
2022/08/11 06:54:49;;;;;;;4.45;3.88;;;33.50;99.90;;;;;;5039578;28;20601;-87
2022/08/11 07:03:02;;;;;;;7.93;3.78;;;33.40;99.90;;;;;;5056205;28;20633;-86
2022/08/11 07:05:36;;;;;;;4.10;3.70;;;34.20;99.90;;;;;;5052412;28;20224;-87
2022/08/11 07:28:53;;;;;;;6.65;3.58;;;34.10;99.90;;;;;;5052942;28;20577;-88
2022/08/11 07:28:54;;;;;;;6.50;3.72;;;34.80;99.90;;;;;;5058570;28;20759;-88
2022/08/11 07:31:34;;;;;;;6.25;3.25;;;35.30;99.90;;;;;;5055233;28;20211;-86
2022/08/11 07:34:31;;;;;;;6.28;3.58;;;35.30;99.90;;;;;;5052005;28;20650;-86
2022/08/11 07:36:59;;;;;;;7.43;3.78;;;35.30;99.90;;;;;;5053117;28;20521;-88
2022/08/11 07:39:27;;;;;;;4.07;3.40;;;34.50;99.90;;;;;;5046700;28;20184;-86
2022/08/11 07:41:56;;;;;;;10.82;3.55;;;34.60;99.90;;;;;;5054615;28;20223;-86
2022/08/11 07:44:28;;;;;;;4.30;3.10;;;33.90;99.90;;;;;;5054770;28;20831;-87
2022/08/11 07:52:29;;;;;;;5.32;3.85;;;34.00;99.90;;;;;;5058882;28;20681;-88
2022/08/11 07:55:01;;;;;;;7.13;3.85;;;33.60;99.90;;;;;;5055164;28;20176;-88
2022/08/11 08:19:36;;;;;;;3.33;2.45;;;33.60;99.90;;;;;;5057821;28;20209;-88
2022/08/11 08:22:02;;;;;;;3.85;2.60;;;33.70;99.90;;;;;;5053293;28;20564;-88
2022/08/11 08:24:29;;;;;;;3.40;3.10;;;32.70;99.90;;;;;;5035201;28;20232;-88
2022/08/11 08:26:58;;;;;;;3.30;2.65;;;32.50;99.90;;;;;;5021960;28;20225;-88
2022/08/11 08:32:17;;;;;;;3.45;2.80;;;33.40;99.90;;;;;;5056500;28;20209;-88
2022/08/11 08:34:44;;;;;;;4.05;2.85;;;34.50;99.90;;;;;;5022350;28;20214;-88
2022/08/11 08:37:11;;;;;;;5.13;2.15;;;34.30;99.90;;;;;;5032543;28;20658;-88
2022/08/11 08:39:37;;;;;;;3.53;2.20;;;34.80;99.90;;;;;;5039108;28;20174;-89
2022/08/11 08:42:11;;;;;;;2.92;2.55;;;34.20;99.90;;;;;;5025324;28;20213;-89
2022/08/11 08:44:44;;;;;;;7.60;3.10;;;33.80;99.90;;;;;;5058740;28;20212;-89
2022/08/11 08:47:13;;;;;;;3.65;2.60;;;33.70;99.90;;;;;;5058897;28;20213;-89
2022/08/11 08:49:49;;;;;;;5.68;2.10;;;33.60;99.90;;;;;;5055088;28;20206;-89
2022/08/11 08:52:21;;;;;;;3.47;2.60;;;33.60;99.90;;;;;;5038718;28;20236;-90
2022/08/11 08:54:52;;;;;;;4.15;2.15;;;33.80;99.90;;;;;;5039200;28;20185;-89
2022/08/11 08:57:21;;;;;;;4.75;2.67;;;33.50;99.90;;;;;;5044492;28;20201;-87
2022/08/11 08:59:49;;;;;;;3.45;2.78;;;33.00;99.90;;;;;;5054761;28;20210;-87
2022/08/11 09:02:18;;;;;;;4.22;2.63;;;31.60;99.90;;;;;;5037704;28;20249;-87
2022/08/11 09:04:46;;;;;;;3.17;2.88;;;31.20;99.90;;;;;;5043897;28;20228;-87
2022/08/11 09:07:15;;;;;;;3.72;2.60;;;32.10;99.90;;;;;;5041460;28;20205;-88
2022/08/11 09:09:47;;;;;;;4.78;2.55;;;32.20;99.90;;;;;;5058738;28;20200;-88
2022/08/11 09:12:15;;;;;;;5.13;2.47;;;31.00;99.90;;;;;;5058464;28;20205;-87
2022/08/11 09:14:59;;;;;;;4.82;2.10;;;32.20;99.90;;;;;;5038076;28;20264;-87
2022/08/11 09:17:30;;;;;;;2.90;2.05;;;32.40;99.90;;;;;;5040264;28;20268;-87
2022/08/11 09:20:03;;;;;;;3.60;2.13;;;33.80;99.90;;;;;;5039423;28;20293;-89
2022/08/11 09:28:04;;;;;;;4.50;2.42;;;34.10;99.90;;;;;;5056746;28;20196;-90
2022/08/11 09:30:30;;;;;;;3.22;2.13;;;35.10;99.90;;;;;;5041915;28;20649;-90
2022/08/11 09:33:00;;;;;;;2.00;1.70;;;35.30;99.90;;;;;;5057798;28;20299;-89
2022/08/11 09:35:27;;;;;;;2.97;2.17;;;34.70;99.90;;;;;;5057723;28;20217;-90
2022/08/11 09:40:46;;;;;;;2.33;1.98;;;34.60;99.90;;;;;;5060512;28;20677;-87
2022/08/11 09:45:59;;;;;;;2.03;1.80;;;31.60;99.90;;;;;;5073052;28;20205;-87
2022/08/11 09:48:29;;;;;;;2.78;2.03;;;31.70;99.90;;;;;;5041394;28;20197;-88
2022/08/11 09:50:58;;;;;;;1.90;1.70;;;31.70;99.90;;;;;;5057074;28;20217;-87
2022/08/11 09:53:26;;;;;;;2.70;1.95;;;32.30;99.90;;;;;;5074993;28;20586;-88
2022/08/11 09:55:52;;;;;;;3.08;1.92;;;33.00;99.90;;;;;;5056067;28;20221;-86
2022/08/11 09:58:20;;;;;;;4.28;1.75;;;32.40;99.90;;;;;;5040293;28;20209;-87
2022/08/11 10:00:48;;;;;;;1.92;1.75;;;32.30;99.90;;;;;;5074995;28;20197;-87
2022/08/11 10:03:20;;;;;;;1.80;1.70;;;32.90;99.90;;;;;;5074600;28;20229;-87
2022/08/11 10:08:44;;;;;;;2.53;1.48;;;33.60;98.10;;;;;;5074419;28;20272;-86
2022/08/11 10:11:12;;;;;;;4.43;1.80;;;34.50;98.50;;;;;;5056660;28;20227;-86
2022/08/11 10:16:33;;;;;;;2.45;1.50;;;33.30;99.90;;;;;;5053994;28;20224;-86
2022/08/11 10:19:01;;;;;;;2.53;1.70;;;32.40;99.90;;;;;;5036811;28;20162;-85
2022/08/11 10:27:26;;;;;;;4.68;1.70;;;33.00;95.40;;;;;;5040086;28;20201;-88
2022/08/11 10:35:24;;;;;;;1.70;1.60;;;33.10;96.30;;;;;;5057050;28;20210;-88
2022/08/11 10:37:52;;;;;;;3.15;1.70;;;32.60;98.80;;;;;;5056131;28;20209;-88
2022/08/11 10:40:21;;;;;;;2.63;1.83;;;32.30;97.80;;;;;;5039026;28;20224;-88
2022/08/11 10:43:05;;;;;;;2.20;1.50;;;32.30;99.30;;;;;;5053520;28;20178;-88
2022/08/11 10:48:29;;;;;;;1.88;1.77;;;32.10;98.90;;;;;;5039298;28;20195;-88
2022/08/11 10:51:14;;;;;;;2.13;1.92;;;33.10;98.00;;;;;;5055384;28;20251;-87
2022/08/11 10:59:25;;;;;;;1.65;1.50;;;31.50;99.70;;;;;;5073669;28;20213;-86
2022/08/11 11:01:52;;;;;;;1.58;1.48;;;31.20;99.30;;;;;;5055477;28;20747;-86
2022/08/11 11:04:33;;;;;;;3.28;2.08;;;30.80;99.80;;;;;;5053744;28;20229;-87
2022/08/11 11:07:28;;;;;;;1.60;1.50;;;30.30;99.90;;;;;;5052197;28;20177;-88
2022/08/11 11:10:03;;;;;;;4.38;2.50;;;30.40;99.90;;;;;;5038622;28;20201;-87
2022/08/11 11:18:23;;;;;;;2.38;1.85;;;32.80;99.20;;;;;;5041979;28;20228;-87
2022/08/11 11:20:55;;;;;;;2.00;1.70;;;32.10;98.40;;;;;;5053412;28;20217;-87
2022/08/11 11:23:40;;;;;;;4.00;1.65;;;31.20;98.20;;;;;;5035686;28;20332;-86
2022/08/11 11:26:27;;;;;;;2.47;1.80;;;31.50;97.00;;;;;;5029922;28;20214;-88
2022/08/11 11:29:23;;;;;;;1.77;1.67;;;32.50;95.60;;;;;;5015612;28;20210;-87
2022/08/11 11:31:58;;;;;;;1.77;1.67;;;32.80;96.30;;;;;;5019755;28;20214;-88
2022/08/11 11:34:32;;;;;;;1.83;1.73;;;32.90;97.80;;;;;;5029886;28;20214;-87
2022/08/11 11:37:00;;;;;;;2.05;1.73;;;33.10;97.70;;;;;;5032318;28;20184;-89
2022/08/11 11:39:29;;;;;;;2.25;1.40;;;31.60;99.90;;;;;;5016749;28;20631;-87
2022/08/11 11:42:00;;;;;;;2.80;2.10;;;30.50;96.60;;;;;;5015164;28;20241;-87
2022/08/11 11:44:27;;;;;;;2.60;1.95;;;30.90;96.10;;;;;;5015357;28;20221;-87
2022/08/11 11:46:54;;;;;;;4.22;2.22;;;31.50;99.90;;;;;;4999155;28;20206;-87
2022/08/11 11:49:26;;;;;;;1.88;1.77;;;31.70;99.90;;;;;;5015577;28;20610;-87
2022/08/11 11:51:54;;;;;;;3.65;2.03;;;31.30;99.90;;;;;;5015455;28;20266;-87
2022/08/11 11:54:23;;;;;;;2.05;1.95;;;30.90;99.90;;;;;;4999937;28;20568;-87
2022/08/11 11:56:52;;;;;;;2.08;1.75;;;31.20;99.90;;;;;;5025657;28;20296;-87
2022/08/11 12:02:07;;;;;;;6.03;1.75;;;31.40;99.90;;;;;;5033395;28;20227;-87
2022/08/11 12:04:36;;;;;;;2.33;1.80;;;30.20;99.90;;;;;;5037477;28;20222;-87
2022/08/11 12:09:49;;;;;;;4.35;2.15;;;29.30;99.90;;;;;;5058507;28;20174;-87
2022/08/11 12:15:10;;;;;;;3.03;1.92;;;30.00;99.90;;;;;;5008792;28;20219;-87
2022/08/11 12:17:37;;;;;;;2.55;1.92;;;29.30;99.90;;;;;;5040134;28;20293;-86
2022/08/11 12:20:04;;;;;;;2.33;1.70;;;29.20;99.90;;;;;;5039169;28;20210;-85
2022/08/11 12:28:00;;;;;;;3.13;1.85;;;29.50;99.90;;;;;;5039995;28;20167;-85
2022/08/11 12:30:26;;;;;;;2.10;2.00;;;29.10;99.90;;;;;;5041953;28;20703;-85
2022/08/11 12:32:52;;;;;;;4.20;2.17;;;28.70;99.90;;;;;;5057918;28;20221;-88
2022/08/11 12:35:17;;;;;;;5.53;2.08;;;29.10;99.90;;;;;;5040222;28;20297;-86
2022/08/11 12:37:57;;;;;;;1.80;1.70;;;29.00;99.90;;;;;;5022129;28;20221;-86
2022/08/11 12:46:18;;;;;;;3.85;2.25;;;29.70;99.90;;;;;;5058964;28;20241;-87
2022/08/11 12:51:57;;;;;;;3.20;1.77;;;29.70;99.90;;;;;;5079137;28;20248;-87
2022/08/11 12:54:50;;;;;;;2.40;2.20;;;29.50;99.90;;;;;;5061363;28;20189;-86
2022/08/11 13:05:42;;;;;;;2.60;1.80;;;29.10;99.90;;;;;;5055903;28;20719;-88
2022/08/11 13:08:08;;;;;;;2.17;1.98;;;29.10;99.90;;;;;;5061240;28;20209;-90
2022/08/11 13:13:20;;;;;;;4.15;1.83;;;29.20;99.90;;;;;;5063996;28;20205;-88
2022/08/11 13:15:51;;;;;;;3.65;1.73;;;29.50;99.90;;;;;;5040827;28;20181;-87
2022/08/11 13:18:21;;;;;;;2.65;1.60;;;29.40;99.90;;;;;;5042143;28;20553;-87
2022/08/11 13:20:52;;;;;;;2.30;1.90;;;29.10;99.90;;;;;;5037080;28;20221;-86
2022/08/11 13:23:18;;;;;;;2.03;1.83;;;29.10;99.90;;;;;;5037630;28;20705;-87
2022/08/11 13:25:44;;;;;;;3.28;2.03;;;29.00;99.90;;;;;;5049347;28;20205;-87
2022/08/11 13:28:11;;;;;;;1.80;1.70;;;28.90;99.90;;;;;;5057809;28;20343;-87
2022/08/11 13:33:24;;;;;;;3.88;1.90;;;28.90;99.90;;;;;;5075421;28;20221;-87
2022/08/11 13:35:54;;;;;;;3.25;2.00;;;29.10;99.90;;;;;;5057638;28;20209;-89
2022/08/11 13:38:24;;;;;;;1.55;1.45;;;29.40;99.90;;;;;;5057272;28;20584;-88
2022/08/11 13:40:52;;;;;;;1.85;1.70;;;29.30;99.90;;;;;;5053441;28;20225;-84
2022/08/11 13:43:20;;;;;;;2.38;1.77;;;28.70;99.90;;;;;;5061945;28;20240;-86
2022/08/11 13:45:46;;;;;;;4.65;1.90;;;28.30;99.90;;;;;;5057439;28;20186;-85
2022/08/11 13:48:14;;;;;;;1.92;1.77;;;28.20;99.90;;;;;;5040439;28;20693;-87
2022/08/11 13:53:28;;;;;;;2.90;1.83;;;28.70;99.90;;;;;;5053784;28;20698;-86
2022/08/11 13:55:56;;;;;;;4.32;1.70;;;29.00;99.90;;;;;;5032157;28;20210;-86
2022/08/11 13:58:22;;;;;;;2.47;1.52;;;29.30;99.90;;;;;;5039884;28;20217;-84
2022/08/11 14:00:51;;;;;;;3.28;1.40;;;29.30;99.90;;;;;;5038535;28;20706;-87
2022/08/11 14:03:22;;;;;;;2.33;1.52;;;29.50;99.90;;;;;;5037273;28;20718;-87
2022/08/11 14:05:55;;;;;;;2.50;1.55;;;29.50;99.90;;;;;;5053540;28;20210;-87
2022/08/11 14:08:31;;;;;;;3.13;1.65;;;29.10;99.90;;;;;;5053566;28;20218;-86
2022/08/11 14:13:49;;;;;;;3.75;1.58;;;27.90;99.90;;;;;;5058167;28;20213;-87
2022/08/11 14:16:20;;;;;;;3.60;1.75;;;28.10;99.90;;;;;;5036521;28;20210;-87
2022/08/11 14:18:50;;;;;;;1.98;1.70;;;28.50;99.90;;;;;;5037206;28;20166;-87
2022/08/11 14:24:04;;;;;;;2.92;1.58;;;28.70;99.90;;;;;;5057423;28;20347;-87
2022/08/11 14:26:37;;;;;;;1.70;1.60;;;28.90;99.90;;;;;;5032186;28;20206;-85
2022/08/11 14:29:13;;;;;;;3.03;1.48;;;28.90;99.90;;;;;;5018567;28;20693;-86
2022/08/11 14:31:49;;;;;;;5.53;1.83;;;28.90;99.90;;;;;;5056120;28;20689;-86
2022/08/11 14:34:20;;;;;;;1.40;1.30;;;28.50;99.90;;;;;;5056579;28;20212;-87
2022/08/11 14:36:51;;;;;;;2.10;1.60;;;28.10;99.90;;;;;;5056850;28;20161;-89
2022/08/11 14:39:20;;;;;;;1.65;1.55;;;27.60;99.90;;;;;;5048204;28;20260;-89
2022/08/11 14:47:23;;;;;;;2.05;1.40;;;27.40;99.90;;;;;;5074086;28;20209;-88
2022/08/11 14:49:53;;;;;;;4.00;1.63;;;27.40;99.90;;;;;;5036355;28;20783;-87
2022/08/11 14:52:19;;;;;;;1.88;1.38;;;27.40;99.90;;;;;;5034888;28;20222;-88
2022/08/11 14:57:38;;;;;;;4.22;1.60;;;27.70;99.90;;;;;;5058620;28;20335;-88
2022/08/11 15:00:06;;;;;;;4.35;1.77;;;27.50;99.90;;;;;;5056281;28;20289;-88
2022/08/11 15:05:23;;;;;;;1.88;1.25;;;27.50;99.90;;;;;;5072697;28;20694;-91
2022/08/11 15:07:50;;;;;;;1.88;1.42;;;27.40;99.90;;;;;;5035911;28;20216;-90
2022/08/11 15:10:18;;;;;;;5.43;1.92;;;27.40;99.90;;;;;;5054264;28;20233;-88
2022/08/11 15:12:44;;;;;;;4.10;1.42;;;27.50;99.90;;;;;;5073869;28;20673;-88
2022/08/11 15:18:03;;;;;;;5.93;1.95;;;27.40;99.90;;;;;;5058406;28;20584;-88
2022/08/11 15:26:16;;;;;;;1.88;1.58;;;27.00;99.90;;;;;;5057636;28;20232;-88
2022/08/11 15:37:25;;;;;;;5.20;1.80;;;26.80;99.90;;;;;;5072810;28;20205;-88
2022/08/11 15:46:00;;;;;;;3.17;1.20;;;26.80;99.90;;;;;;5068416;28;20223;-92
2022/08/11 15:48:31;;;;;;;6.97;1.35;;;26.40;99.90;;;;;;5056113;28;20186;-90
2022/08/11 15:51:27;;;;;;;2.85;1.67;;;26.30;99.90;;;;;;5035622;28;20217;-88
2022/08/11 15:53:58;;;;;;;8.82;1.70;;;26.20;99.90;;;;;;5037650;28;20210;-88
2022/08/11 15:56:28;;;;;;;5.22;1.58;;;26.40;99.90;;;;;;5061574;28;20202;-90
2022/08/11 16:04:30;;;;;;;2.50;1.63;;;26.40;99.90;;;;;;5058808;28;20704;-89
2022/08/11 16:07:25;;;;;;;5.13;1.75;;;26.30;99.90;;;;;;5055005;28;20173;-89
2022/08/11 16:10:00;;;;;;;2.08;1.88;;;26.30;99.90;;;;;;5035447;28;20220;-88
2022/08/11 16:12:29;;;;;;;2.38;1.70;;;26.30;99.90;;;;;;5035760;28;20185;-88
2022/08/11 16:17:54;;;;;;;1.73;1.63;;;26.20;99.90;;;;;;5047443;28;20626;-88
2022/08/11 16:20:23;;;;;;;3.88;1.60;;;26.10;99.90;;;;;;5035353;28;20559;-88
2022/08/11 16:22:51;;;;;;;1.35;1.25;;;26.10;99.90;;;;;;5042985;28;20704;-89
2022/08/11 16:25:21;;;;;;;1.55;1.38;;;25.90;99.90;;;;;;5055723;28;20550;-87
2022/08/11 16:28:07;;;;;;;2.45;1.60;;;25.80;99.90;;;;;;5055464;28;20169;-88
2022/08/11 16:30:36;;;;;;;1.50;1.40;;;25.70;99.90;;;;;;5052025;28;20308;-89
2022/08/11 16:33:05;;;;;;;1.92;1.38;;;25.80;99.90;;;;;;5025039;28;20209;-88
2022/08/11 16:38:34;;;;;;;1.40;1.17;;;25.90;99.90;;;;;;5058309;28;20217;-88
2022/08/11 16:41:07;;;;;;;5.07;1.70;;;25.70;99.90;;;;;;5037295;28;20225;-86
2022/08/11 16:49:14;;;;;;;2.35;1.63;;;25.50;99.90;;;;;;5072148;28;20217;-88
2022/08/11 16:51:40;;;;;;;3.75;1.45;;;25.60;99.90;;;;;;5049130;28;20208;-88
2022/08/11 16:54:09;;;;;;;2.85;1.83;;;25.60;99.90;;;;;;5041661;28;20256;-89
2022/08/11 16:56:40;;;;;;;1.77;1.63;;;25.60;99.90;;;;;;5058504;28;20209;-89
2022/08/11 16:59:13;;;;;;;3.80;1.42;;;25.60;99.90;;;;;;5075130;28;20274;-89
2022/08/11 17:01:53;;;;;;;1.90;1.42;;;25.50;99.90;;;;;;5039109;28;20352;-88
2022/08/11 17:13:09;;;;;;;1.55;1.45;;;25.30;99.90;;;;;;5056551;28;20174;-89
2022/08/11 17:16:05;;;;;;;1.73;1.50;;;25.20;99.90;;;;;;5041778;28;20182;-89
2022/08/11 17:18:48;;;;;;;2.95;1.73;;;25.10;99.90;;;;;;5053575;28;20221;-90
2022/08/11 17:21:22;;;;;;;3.55;1.48;;;25.10;99.90;;;;;;5058661;28;20270;-90
2022/08/11 17:23:53;;;;;;;3.00;1.70;;;24.90;99.90;;;;;;5050965;28;20206;-89
2022/08/11 17:29:27;;;;;;;2.05;1.60;;;24.90;99.90;;;;;;5059863;28;20201;-88
2022/08/11 17:37:30;;;;;;;2.88;1.55;;;24.70;99.90;;;;;;5060628;28;20209;-89
2022/08/11 17:39:57;;;;;;;4.88;1.75;;;24.70;99.90;;;;;;5057985;28;20264;-89
2022/08/11 17:50:43;;;;;;;1.58;1.48;;;24.40;99.90;;;;;;5068957;28;20220;-93
2022/08/11 18:01:27;;;;;;;1.90;1.67;;;24.10;99.90;;;;;;5052828;28;20655;-90
2022/08/11 18:03:55;;;;;;;1.95;1.70;;;24.00;99.90;;;;;;5036282;28;20264;-90
2022/08/11 18:06:24;;;;;;;1.83;1.63;;;24.00;99.90;;;;;;5075835;28;20280;-89
